Time,TemperatureF,DewpointF,PressureIn,WindDirection,WindDirectionDegrees,WindSpeedMPH,WindSpeedGustMPH,Humidity,HourlyPrecipIn,Conditions,Clouds,dailyrainin,SoftwareType,DateUTC
2013-03-12 00:02:00,12.0,5.0,-100.00,ESE,110,3.0,4.0,74,-99.99,,,-99.99,,2013-03-12 06:02:00,
2013-03-12 00:11:00,12.0,5.0,-100.00,ESE,110,3.0,4.0,74,-99.99,,,-99.99,,2013-03-12 06:11:00,
2013-03-12 00:52:00,12.0,2.0,-100.00,ESE,114,2.0,4.0,66,-99.99,,,-99.99,,2013-03-12 06:52:00,
2013-03-12 01:02:00,12.0,2.0,-100.00,ESE,114,2.0,4.0,66,-99.99,,,-99.99,,2013-03-12 07:02:00,
2013-03-12 01:12:00,12.0,2.0,-100.00,ESE,114,2.0,4.0,66,-99.99,,,-99.99,,2013-03-12 07:12:00,
2013-03-12 01:52:00,7.0,0.0,-100.00,SE,129,2.0,3.0,71,-99.99,,,-99.99,,2013-03-12 07:52:00,
2013-03-12 02:02:00,7.0,0.0,-100.00,SE,129,2.0,3.0,71,-99.99,,,-99.99,,2013-03-12 08:02:00,
2013-03-12 02:12:00,7.0,0.0,-100.00,SE,129,2.0,3.0,71,-99.99,,,-99.99,,2013-03-12 08:12:00,
2013-03-12 02:52:00,5.0,0.0,-100.00,ESE,116,3.0,4.0,78,-99.99,,,-99.99,,2013-03-12 08:52:00,
2013-03-12 03:03:00,5.0,0.0,-100.00,ESE,116,3.0,4.0,78,-99.99,,,-99.99,,2013-03-12 09:03:00,
2013-03-12 03:11:00,5.0,0.0,-100.00,ESE,116,3.0,4.0,78,-99.99,,,-99.99,,2013-03-12 09:11:00,
2013-03-12 03:52:00,4.0,-1.0,-100.00,WSW,258,1.0,3.0,78,-99.99,,,-99.99,,2013-03-12 09:52:00,
2013-03-12 04:02:00,4.0,-1.0,-100.00,WSW,258,1.0,3.0,78,-99.99,,,-99.99,,2013-03-12 10:02:00,
2013-03-12 04:12:00,4.0,-1.0,-100.00,WSW,258,1.0,3.0,78,-99.99,,,-99.99,,2013-03-12 10:12:00,
2013-03-12 04:52:00,2.0,-2.0,-100.00,SE,126,3.0,4.0,81,-99.99,,,-99.99,,2013-03-12 10:52:00,
2013-03-12 05:02:00,2.0,-2.0,-100.00,SE,126,3.0,4.0,81,-99.99,,,-99.99,,2013-03-12 11:02:00,
2013-03-12 05:12:00,2.0,-2.0,-100.00,SE,126,3.0,4.0,81,-99.99,,,-99.99,,2013-03-12 11:12:00,
2013-03-12 05:52:00,6.0,1.0,-100.00,SSE,150,1.0,2.0,80,-99.99,,,-99.99,,2013-03-12 11:52:00,
2013-03-12 06:02:00,6.0,1.0,-100.00,SSE,150,1.0,2.0,80,-99.99,,,-99.99,,2013-03-12 12:02:00,
2013-03-12 06:12:00,6.0,1.0,-100.00,SSE,150,1.0,2.0,80,-99.99,,,-99.99,,2013-03-12 12:12:00,
2013-03-12 06:52:00,10.0,3.0,-100.00,ESE,106,2.0,4.0,74,-99.99,,,-99.99,,2013-03-12 12:52:00,
2013-03-12 07:12:00,10.0,3.0,-100.00,ESE,106,2.0,4.0,74,-99.99,,,-99.99,,2013-03-12 13:12:00,
2013-03-12 07:52:00,11.0,5.0,-100.00,ESE,118,0.0,2.0,74,-99.99,,,-99.99,,2013-03-12 13:52:00,
2013-03-12 08:12:00,11.0,5.0,-100.00,ESE,118,0.0,2.0,74,-99.99,,,-99.99,,2013-03-12 14:12:00,
2013-03-12 08:53:00,14.0,8.0,-100.00,West,263,2.0,3.0,78,-99.99,,,-99.99,,2013-03-12 14:53:00,
2013-03-12 09:12:00,14.0,8.0,-100.00,West,263,2.0,3.0,78,-99.99,,,-99.99,,2013-03-12 15:12:00,
2013-03-12 09:53:00,23.0,10.0,-100.00,WSW,238,3.0,4.0,56,-99.99,,,-99.99,,2013-03-12 15:53:00,
2013-03-12 10:53:00,27.0,10.0,-100.00,SW,231,6.0,11.0,47,-99.99,,,-99.99,,2013-03-12 16:53:00,
2013-03-12 11:12:00,27.0,10.0,-100.00,SW,231,6.0,11.0,47,-99.99,,,-99.99,,2013-03-12 17:12:00,
2013-03-12 12:02:00,29.0,11.0,-100.00,East,94,3.0,6.0,47,-99.99,,,-99.99,,2013-03-12 18:02:00,
2013-03-12 12:12:00,29.0,11.0,-100.00,East,94,3.0,6.0,47,-99.99,,,-99.99,,2013-03-12 18:12:00,
2013-03-12 13:03:00,31.0,14.0,-100.00,SW,228,6.0,11.0,49,-99.99,,,-99.99,,2013-03-12 19:03:00,
2013-03-12 13:13:00,31.0,14.0,-100.00,SW,228,6.0,11.0,49,-99.99,,,-99.99,,2013-03-12 19:13:00,
2013-03-12 13:53:00,30.0,14.0,-100.00,East,79,2.0,3.0,51,-99.99,,,-99.99,,2013-03-12 19:53:00,
2013-03-12 14:02:00,30.0,14.0,-100.00,East,79,2.0,3.0,51,-99.99,,,-99.99,,2013-03-12 20:02:00,
2013-03-12 14:12:00,30.0,14.0,-100.00,East,79,2.0,3.0,51,-99.99,,,-99.99,,2013-03-12 20:12:00,
2013-03-12 14:53:00,32.0,20.0,-100.00,WSW,238,7.0,14.0,62,-99.99,,,-99.99,,2013-03-12 20:53:00,
2013-03-12 15:02:00,32.0,20.0,-100.00,WSW,238,7.0,14.0,62,-99.99,,,-99.99,,2013-03-12 21:02:00,
2013-03-12 15:12:00,32.0,20.0,-100.00,WSW,238,7.0,14.0,62,-99.99,,,-99.99,,2013-03-12 21:12:00,
2013-03-12 15:52:00,34.0,21.0,-100.00,West,260,13.0,20.0,59,-99.99,,,-99.99,,2013-03-12 21:52:00,
2013-03-12 16:02:00,34.0,21.0,-100.00,West,260,13.0,20.0,59,-99.99,,,-99.99,,2013-03-12 22:02:00,
2013-03-12 16:12:00,34.0,21.0,-100.00,West,260,13.0,20.0,59,-99.99,,,-99.99,,2013-03-12 22:12:00,
2013-03-12 16:53:00,36.0,21.0,-100.00,West,261,9.0,17.0,56,-99.99,,,-99.99,,2013-03-12 22:53:00,
2013-03-12 17:02:00,36.0,21.0,-100.00,West,261,9.0,17.0,56,-99.99,,,-99.99,,2013-03-12 23:02:00,
2013-03-12 17:12:00,36.0,21.0,-100.00,West,261,9.0,17.0,56,-99.99,,,-99.99,,2013-03-12 23:12:00,
2013-03-12 17:52:00,35.0,23.0,-100.00,WSW,252,14.0,22.0,62,-99.99,,,-99.99,,2013-03-12 23:52:00,
2013-03-12 18:02:00,35.0,23.0,-100.00,WSW,252,14.0,22.0,62,-99.99,,,-99.99,,2013-03-13 00:02:00,
2013-03-12 18:12:00,35.0,23.0,-100.00,WSW,252,14.0,22.0,62,-99.99,,,-99.99,,2013-03-13 00:12:00,
2013-03-12 18:53:00,32.0,25.0,-100.00,SW,231,4.0,7.0,73,-99.99,,,-99.99,,2013-03-13 00:53:00,
2013-03-12 19:02:00,32.0,25.0,-100.00,SW,231,4.0,7.0,73,-99.99,,,-99.99,,2013-03-13 01:02:00,
2013-03-12 19:12:00,32.0,25.0,-100.00,SW,231,4.0,7.0,73,-99.99,,,-99.99,,2013-03-13 01:12:00,
2013-03-12 20:52:00,32.0,27.0,-100.00,West,261,7.0,10.0,82,-99.99,,,-99.99,,2013-03-13 02:52:00,
2013-03-12 21:02:00,32.0,27.0,-100.00,West,261,7.0,10.0,82,-99.99,,,-99.99,,2013-03-13 03:02:00,
2013-03-12 21:12:00,32.0,27.0,-100.00,West,261,7.0,10.0,82,-99.99,,,-99.99,,2013-03-13 03:12:00,
2013-03-12 21:52:00,32.0,28.0,-100.00,SW,220,4.0,7.0,84,-99.99,,,-99.99,,2013-03-13 03:52:00,
2013-03-12 22:02:00,32.0,28.0,-100.00,SW,220,4.0,7.0,84,-99.99,,,-99.99,,2013-03-13 04:02:00,
2013-03-12 22:12:00,32.0,28.0,-100.00,SW,220,4.0,7.0,84,-99.99,,,-99.99,,2013-03-13 04:12:00,
2013-03-12 22:53:00,32.0,27.0,-100.00,SE,127,2.0,4.0,84,-99.99,,,-99.99,,2013-03-13 04:53:00,
2013-03-12 23:02:00,32.0,27.0,-100.00,SE,127,2.0,4.0,84,-99.99,,,-99.99,,2013-03-13 05:02:00,
2013-03-12 23:12:00,32.0,27.0,-100.00,SE,127,2.0,4.0,84,-99.99,,,-99.99,,2013-03-13 05:12:00,
2013-03-12 23:52:00,32.0,27.0,-100.00,ESE,113,3.0,5.0,84,-99.99,,,-99.99,,2013-03-13 05:52:00,